APL Qingdao — 9V9376 — position and weather

sailwx.info

Track history (hours):
 
Tides and Currents Weather Stations Pressure Air Temp Water Temp Dewpoint Dewpoint Depression Visibility Wind Speed Wind Dir Waves Ship Positions

APL Qingdao

Last reported at 2018-Feb-22 21:30 UTC. Time now 2018-Feb-23 01:10 UTC.
Position N 24°14' E 118°38'.

Length 354 m; draft 11.9 m.

Type: Cargo ship. MMSI: 566408000.

Date/timePositionNaut miles runAvg speedWind from/ knotsBaromVisibWave heightAir tempDewpointWater temp
2018-Feb-22 21:30N 24°14' E 118°38'816.1
2018-Feb-22 21:00N 24°12' E 118°29'816.0
2018-Feb-22 20:30N 24°11' E 118°21'815.7
2018-Feb-22 20:00N 24°16' E 118°14'715.0
2018-Feb-22 19:30N 24°22' E 118°09'612.4
2018-Feb-22 19:00N 24°26' E 118°03'5 9.5
2018-Feb-22 18:30N 24°27' E 117°58'0 0.4
2018-Feb-22 17:59N 24°27' E 117°59'0 0.0
2018-Feb-22 17:30N 24°27' E 117°59'0 0.0
2018-Feb-22 17:00N 24°27' E 117°59'0 0.0
2018-Feb-22 16:30N 24°27' E 117°59'0 0.0
2018-Feb-22 15:58N 24°27' E 117°59'0 0.0
2018-Feb-22 15:30N 24°27' E 117°59'0 0.0
2018-Feb-22 15:00N 24°27' E 117°59'0 0.0
2018-Feb-22 14:30N 24°27' E 117°59'0 0.0
2018-Feb-22 13:57N 24°27' E 117°59'0 0.0
2018-Feb-22 13:30N 24°27' E 117°59'0 0.0
2018-Feb-22 13:00N 24°27' E 117°59'0 0.0
2018-Feb-22 12:30N 24°27' E 117°59'0 0.0
2018-Feb-22 12:00N 24°27' E 117°59'0 0.2
2018-Feb-22 11:30N 24°27' E 117°59'2 5.0
2018-Feb-22 11:00N 24°26' E 118°01'611.2
2018-Feb-22 10:31N 24°24' E 118°07'612.5
2018-Feb-22 10:01N 24°19' E 118°11'917.2
2018-Feb-22 09:30N 24°13' E 118°17'713.0
2018-Feb-22 09:00N 24°06' E 118°19'1019.4
2018-Feb-22 08:30N 23°59' E 118°13'1020.1
2018-Feb-22 08:00N 23°51' E 118°06'1020.3
2018-Feb-22 07:30N 23°43' E 117°59'1020.3
2018-Feb-22 07:00N 23°34' E 117°54'1020.7
2018-Feb-22 06:30N 23°27' E 117°46'1120.8
2018-Feb-22 06:00N 23°19' E 117°38'1021.1
2018-Feb-22 05:30N 23°12' E 117°30'1120.7
2018-Feb-22 04:58N 23°05' E 117°20'15 0.5
2018-Feb-20 19:23N 23°12' E 117°35'820.8
2018-Feb-20 18:59N 23°18' E 117°42'1020.6
2018-Feb-20 18:30N 23°24' E 117°50'1120.5
2018-Feb-20 17:59N 23°30' E 117°60'1020.5
2018-Feb-20 17:30N 23°35' E 118°09'1120.2
2018-Feb-20 16:58N 23°42' E 118°18'1020.4
2018-Feb-20 16:29N 23°48' E 118°27'1020.2
2018-Feb-20 15:59N 23°54' E 118°35'1020.1
2018-Feb-20 15:30N 23°59' E 118°44'1321.6
2018-Feb-20 14:56N 24°04' E 118°57'83921.8
2018-Feb-19 00:29N 34°20' E 129°51'1222.4
2018-Feb-18 23:58N 34°27' E 130°02'1022.6
2018-Feb-18 23:30N 34°34' E 130°11'1122.3
2018-Feb-18 22:59N 34°41' E 130°22'1822.2
2018-Feb-18 22:11N 34°53' E 130°38'422.3
2018-Feb-18 21:59N 34°55' E 130°43'58920.3
2018-Feb-17 17:00N 41°18' E 140°13'816.9
2018-Feb-17 16:30N 41°23' E 140°22'1020.5
2018-Feb-17 16:00N 41°29' E 140°33'1019.4
2018-Feb-17 15:30N 41°35' E 140°43'918.2
2018-Feb-17 15:00N 41°39' E 140°53'917.0
2018-Feb-17 14:30N 41°40' E 141°05'1019.7
2018-Feb-17 14:00N 41°41' E 141°18'918.6
2018-Feb-17 13:30N 41°41' E 141°30'918.3
2018-Feb-17 13:00N 41°42' E 141°42'  
2018-Feb-14 23:00N 53°30' E 167°36'   320 / 101001.0 5.4 1.0 5.0
Track history (hours):
 
Tides and Currents Weather Stations Pressure Air Temp Water Temp Dewpoint Dewpoint Depression Visibility Wind Speed Wind Dir Waves Ship Positions

APL Qingdao

Last reported at 2018-Feb-22 21:30 UTC. Time now 2018-Feb-23 01:10 UTC.
Position N 24°14' E 118°38'.

Length 354 m; draft 11.9 m.

Type: Cargo ship. MMSI: 566408000.

Date/timePositionNaut miles runAvg speedWind from/ knotsBaromVisibWave heightAir tempDewpointWater temp
2018-Feb-22 21:30N 24°14' E 118°38'816.1
2018-Feb-22 21:00N 24°12' E 118°29'816.0
2018-Feb-22 20:30N 24°11' E 118°21'815.7
2018-Feb-22 20:00N 24°16' E 118°14'715.0
2018-Feb-22 19:30N 24°22' E 118°09'612.4
2018-Feb-22 19:00N 24°26' E 118°03'5 9.5
2018-Feb-22 18:30N 24°27' E 117°58'0 0.4
2018-Feb-22 17:59N 24°27' E 117°59'0 0.0
2018-Feb-22 17:30N 24°27' E 117°59'0 0.0
2018-Feb-22 17:00N 24°27' E 117°59'0 0.0
2018-Feb-22 16:30N 24°27' E 117°59'0 0.0
2018-Feb-22 15:58N 24°27' E 117°59'0 0.0
2018-Feb-22 15:30N 24°27' E 117°59'0 0.0
2018-Feb-22 15:00N 24°27' E 117°59'0 0.0
2018-Feb-22 14:30N 24°27' E 117°59'0 0.0
2018-Feb-22 13:57N 24°27' E 117°59'0 0.0
2018-Feb-22 13:30N 24°27' E 117°59'0 0.0
2018-Feb-22 13:00N 24°27' E 117°59'0 0.0
2018-Feb-22 12:30N 24°27' E 117°59'0 0.0
2018-Feb-22 12:00N 24°27' E 117°59'0 0.2
2018-Feb-22 11:30N 24°27' E 117°59'2 5.0
2018-Feb-22 11:00N 24°26' E 118°01'611.2
2018-Feb-22 10:31N 24°24' E 118°07'612.5
2018-Feb-22 10:01N 24°19' E 118°11'917.2
2018-Feb-22 09:30N 24°13' E 118°17'713.0
2018-Feb-22 09:00N 24°06' E 118°19'1019.4
2018-Feb-22 08:30N 23°59' E 118°13'1020.1
2018-Feb-22 08:00N 23°51' E 118°06'1020.3
2018-Feb-22 07:30N 23°43' E 117°59'1020.3
2018-Feb-22 07:00N 23°34' E 117°54'1020.7
2018-Feb-22 06:30N 23°27' E 117°46'1120.8
2018-Feb-22 06:00N 23°19' E 117°38'1021.1
2018-Feb-22 05:30N 23°12' E 117°30'1120.7
2018-Feb-22 04:58N 23°05' E 117°20'15 0.5
2018-Feb-20 19:23N 23°12' E 117°35'820.8
2018-Feb-20 18:59N 23°18' E 117°42'1020.6
2018-Feb-20 18:30N 23°24' E 117°50'1120.5
2018-Feb-20 17:59N 23°30' E 117°60'1020.5
2018-Feb-20 17:30N 23°35' E 118°09'1120.2
2018-Feb-20 16:58N 23°42' E 118°18'1020.4
2018-Feb-20 16:29N 23°48' E 118°27'1020.2
2018-Feb-20 15:59N 23°54' E 118°35'1020.1
2018-Feb-20 15:30N 23°59' E 118°44'1321.6
2018-Feb-20 14:56N 24°04' E 118°57'83921.8
2018-Feb-19 00:29N 34°20' E 129°51'1222.4
2018-Feb-18 23:58N 34°27' E 130°02'1022.6
2018-Feb-18 23:30N 34°34' E 130°11'1122.3
2018-Feb-18 22:59N 34°41' E 130°22'1822.2
2018-Feb-18 22:11N 34°53' E 130°38'422.3
2018-Feb-18 21:59N 34°55' E 130°43'58920.3
2018-Feb-17 17:00N 41°18' E 140°13'816.9
2018-Feb-17 16:30N 41°23' E 140°22'1020.5
2018-Feb-17 16:00N 41°29' E 140°33'1019.4
2018-Feb-17 15:30N 41°35' E 140°43'918.2
2018-Feb-17 15:00N 41°39' E 140°53'917.0
2018-Feb-17 14:30N 41°40' E 141°05'1019.7
2018-Feb-17 14:00N 41°41' E 141°18'918.6
2018-Feb-17 13:30N 41°41' E 141°30'918.3
2018-Feb-17 13:00N 41°42' E 141°42'  
2018-Feb-14 23:00N 53°30' E 167°36'   320 / 101001.0 5.4 1.0 5.0

Dump ship's entire track history